sensor_id;sensor_type;location;lat;lon;timestamp;P1;durP1;ratioP1;P2;durP2;ratioP2
14613;SDS011;7393;51.446;6.800;2023-05-31T00:01:13;6.70;;;5.40;;
14613;SDS011;7393;51.446;6.800;2023-05-31T00:03:40;6.00;;;5.10;;
14613;SDS011;7393;51.446;6.800;2023-05-31T00:06:08;6.00;;;5.37;;
14613;SDS011;7393;51.446;6.800;2023-05-31T00:08:37;8.80;;;5.90;;
14613;SDS011;7393;51.446;6.800;2023-05-31T00:11:05;5.67;;;5.07;;
14613;SDS011;7393;51.446;6.800;2023-05-31T00:13:32;8.57;;;5.77;;
14613;SDS011;7393;51.446;6.800;2023-05-31T00:15:59;6.27;;;5.50;;
14613;SDS011;7393;51.446;6.800;2023-05-31T00:18:26;6.30;;;5.70;;
14613;SDS011;7393;51.446;6.800;2023-05-31T00:20:53;6.70;;;5.00;;
14613;SDS011;7393;51.446;6.800;2023-05-31T00:23:19;10.13;;;5.77;;
14613;SDS011;7393;51.446;6.800;2023-05-31T00:25:48;9.40;;;6.17;;
14613;SDS011;7393;51.446;6.800;2023-05-31T00:28:14;6.37;;;5.70;;
14613;SDS011;7393;51.446;6.800;2023-05-31T00:30:41;7.10;;;6.00;;
14613;SDS011;7393;51.446;6.800;2023-05-31T00:33:08;7.20;;;5.50;;
14613;SDS011;7393;51.446;6.800;2023-05-31T00:35:35;7.93;;;6.10;;
14613;SDS011;7393;51.446;6.800;2023-05-31T00:38:04;10.30;;;5.90;;
14613;SDS011;7393;51.446;6.800;2023-05-31T00:40:32;7.90;;;6.07;;
14613;SDS011;7393;51.446;6.800;2023-05-31T00:43:00;6.63;;;5.73;;
14613;SDS011;7393;51.446;6.800;2023-05-31T00:45:27;7.53;;;6.00;;
14613;SDS011;7393;51.446;6.800;2023-05-31T00:47:54;8.27;;;6.53;;
14613;SDS011;7393;51.446;6.800;2023-05-31T00:50:22;7.50;;;5.67;;
14613;SDS011;7393;51.446;6.800;2023-05-31T00:52:49;7.13;;;6.43;;
14613;SDS011;7393;51.446;6.800;2023-05-31T00:55:19;9.80;;;6.10;;
14613;SDS011;7393;51.446;6.800;2023-05-31T00:57:46;8.70;;;6.20;;
14613;SDS011;7393;51.446;6.800;2023-05-31T01:00:15;8.17;;;5.90;;
14613;SDS011;7393;51.446;6.800;2023-05-31T01:02:42;6.83;;;5.63;;
14613;SDS011;7393;51.446;6.800;2023-05-31T01:05:09;7.23;;;6.17;;
14613;SDS011;7393;51.446;6.800;2023-05-31T01:07:36;6.20;;;5.57;;
14613;SDS011;7393;51.446;6.800;2023-05-31T01:10:04;9.07;;;5.90;;
14613;SDS011;7393;51.446;6.800;2023-05-31T01:12:34;7.63;;;5.90;;
14613;SDS011;7393;51.446;6.800;2023-05-31T01:15:08;6.70;;;5.97;;
14613;SDS011;7393;51.446;6.800;2023-05-31T01:17:43;7.30;;;6.23;;
14613;SDS011;7393;51.446;6.800;2023-05-31T01:20:18;7.27;;;6.30;;
14613;SDS011;7393;51.446;6.800;2023-05-31T01:22:55;6.70;;;6.00;;
14613;SDS011;7393;51.446;6.800;2023-05-31T01:25:33;6.73;;;5.90;;
14613;SDS011;7393;51.446;6.800;2023-05-31T01:28:14;8.30;;;6.57;;
14613;SDS011;7393;51.446;6.800;2023-05-31T01:30:42;8.13;;;6.20;;
14613;SDS011;7393;51.446;6.800;2023-05-31T01:33:11;7.10;;;6.40;;
14613;SDS011;7393;51.446;6.800;2023-05-31T01:35:39;6.40;;;5.80;;
14613;SDS011;7393;51.446;6.800;2023-05-31T01:38:06;6.30;;;5.67;;
14613;SDS011;7393;51.446;6.800;2023-05-31T01:40:32;6.80;;;6.10;;
14613;SDS011;7393;51.446;6.800;2023-05-31T01:43:00;8.23;;;6.50;;
14613;SDS011;7393;51.446;6.800;2023-05-31T01:45:30;7.43;;;6.53;;
14613;SDS011;7393;51.446;6.800;2023-05-31T01:47:59;10.20;;;6.37;;
14613;SDS011;7393;51.446;6.800;2023-05-31T01:50:28;8.43;;;6.33;;
14613;SDS011;7393;51.446;6.800;2023-05-31T01:52:55;7.30;;;6.60;;
14613;SDS011;7393;51.446;6.800;2023-05-31T01:55:22;7.93;;;6.63;;
14613;SDS011;7393;51.446;6.800;2023-05-31T01:57:49;8.67;;;6.70;;
14613;SDS011;7393;51.446;6.800;2023-05-31T02:00:18;7.40;;;6.70;;
14613;SDS011;7393;51.446;6.800;2023-05-31T02:02:47;6.80;;;6.00;;
14613;SDS011;7393;51.446;6.800;2023-05-31T02:05:14;7.13;;;6.43;;
14613;SDS011;7393;51.446;6.800;2023-05-31T02:07:41;8.13;;;6.63;;
14613;SDS011;7393;51.446;6.800;2023-05-31T02:10:09;7.43;;;6.17;;
14613;SDS011;7393;51.446;6.800;2023-05-31T02:12:37;7.90;;;7.10;;
14613;SDS011;7393;51.446;6.800;2023-05-31T02:15:05;8.57;;;7.10;;
14613;SDS011;7393;51.446;6.800;2023-05-31T02:17:35;7.43;;;6.67;;
14613;SDS011;7393;51.446;6.800;2023-05-31T02:20:07;7.70;;;6.43;;
14613;SDS011;7393;51.446;6.800;2023-05-31T02:22:36;7.87;;;7.07;;
14613;SDS011;7393;51.446;6.800;2023-05-31T02:25:03;6.67;;;6.07;;
14613;SDS011;7393;51.446;6.800;2023-05-31T02:27:30;7.87;;;7.07;;
14613;SDS011;7393;51.446;6.800;2023-05-31T02:29:57;7.70;;;6.60;;
14613;SDS011;7393;51.446;6.800;2023-05-31T02:32:24;7.90;;;6.90;;
14613;SDS011;7393;51.446;6.800;2023-05-31T02:34:51;7.77;;;6.90;;
14613;SDS011;7393;51.446;6.800;2023-05-31T02:37:19;7.70;;;6.90;;
14613;SDS011;7393;51.446;6.800;2023-05-31T02:39:46;8.77;;;6.63;;
14613;SDS011;7393;51.446;6.800;2023-05-31T02:42:13;9.48;;;6.97;;
14613;SDS011;7393;51.446;6.800;2023-05-31T02:44:40;8.93;;;7.40;;
14613;SDS011;7393;51.446;6.800;2023-05-31T02:47:06;7.33;;;6.50;;
14613;SDS011;7393;51.446;6.800;2023-05-31T02:49:33;7.60;;;6.80;;
14613;SDS011;7393;51.446;6.800;2023-05-31T02:52:00;7.20;;;6.50;;
14613;SDS011;7393;51.446;6.800;2023-05-31T02:54:28;9.10;;;7.17;;
14613;SDS011;7393;51.446;6.800;2023-05-31T02:56:55;7.70;;;6.70;;
14613;SDS011;7393;51.446;6.800;2023-05-31T02:59:22;8.80;;;7.50;;
14613;SDS011;7393;51.446;6.800;2023-05-31T03:01:49;8.93;;;7.93;;
14613;SDS011;7393;51.446;6.800;2023-05-31T03:04:16;8.37;;;6.93;;
14613;SDS011;7393;51.446;6.800;2023-05-31T03:06:43;8.80;;;7.40;;
14613;SDS011;7393;51.446;6.800;2023-05-31T03:09:10;9.67;;;7.97;;
14613;SDS011;7393;51.446;6.800;2023-05-31T03:11:42;8.10;;;7.30;;
14613;SDS011;7393;51.446;6.800;2023-05-31T03:14:09;8.40;;;7.43;;
14613;SDS011;7393;51.446;6.800;2023-05-31T03:16:36;9.07;;;7.80;;
14613;SDS011;7393;51.446;6.800;2023-05-31T03:19:03;9.43;;;7.83;;
14613;SDS011;7393;51.446;6.800;2023-05-31T03:21:29;8.50;;;7.60;;
14613;SDS011;7393;51.446;6.800;2023-05-31T03:23:56;10.83;;;7.80;;
14613;SDS011;7393;51.446;6.800;2023-05-31T03:26:23;10.73;;;7.67;;
14613;SDS011;7393;51.446;6.800;2023-05-31T03:28:52;9.30;;;8.10;;
14613;SDS011;7393;51.446;6.800;2023-05-31T03:31:19;10.73;;;7.60;;
14613;SDS011;7393;51.446;6.800;2023-05-31T03:33:45;9.67;;;8.07;;
14613;SDS011;7393;51.446;6.800;2023-05-31T03:36:12;14.03;;;8.20;;
14613;SDS011;7393;51.446;6.800;2023-05-31T03:38:39;9.60;;;7.73;;
14613;SDS011;7393;51.446;6.800;2023-05-31T03:41:06;9.83;;;7.70;;
14613;SDS011;7393;51.446;6.800;2023-05-31T03:43:33;9.90;;;7.63;;
14613;SDS011;7393;51.446;6.800;2023-05-31T03:46:01;9.23;;;7.67;;
14613;SDS011;7393;51.446;6.800;2023-05-31T03:48:28;10.13;;;8.10;;
14613;SDS011;7393;51.446;6.800;2023-05-31T03:50:55;11.33;;;8.00;;
14613;SDS011;7393;51.446;6.800;2023-05-31T03:53:22;9.43;;;8.33;;
14613;SDS011;7393;51.446;6.800;2023-05-31T03:55:50;11.57;;;8.70;;
14613;SDS011;7393;51.446;6.800;2023-05-31T03:58:17;10.10;;;8.37;;
14613;SDS011;7393;51.446;6.800;2023-05-31T04:00:44;11.13;;;8.73;;
14613;SDS011;7393;51.446;6.800;2023-05-31T04:03:13;10.30;;;7.93;;
14613;SDS011;7393;51.446;6.800;2023-05-31T04:05:40;12.53;;;8.20;;
14613;SDS011;7393;51.446;6.800;2023-05-31T04:08:07;10.43;;;8.60;;
14613;SDS011;7393;51.446;6.800;2023-05-31T04:10:34;11.40;;;8.70;;
14613;SDS011;7393;51.446;6.800;2023-05-31T04:13:00;12.50;;;8.60;;
14613;SDS011;7393;51.446;6.800;2023-05-31T04:15:27;11.93;;;8.80;;
14613;SDS011;7393;51.446;6.800;2023-05-31T04:17:54;11.30;;;8.80;;
14613;SDS011;7393;51.446;6.800;2023-05-31T04:20:23;10.80;;;8.80;;
14613;SDS011;7393;51.446;6.800;2023-05-31T04:22:50;12.07;;;8.47;;
14613;SDS011;7393;51.446;6.800;2023-05-31T04:25:17;12.27;;;8.27;;
14613;SDS011;7393;51.446;6.800;2023-05-31T04:27:45;10.93;;;9.17;;
14613;SDS011;7393;51.446;6.800;2023-05-31T04:30:12;10.83;;;8.70;;
14613;SDS011;7393;51.446;6.800;2023-05-31T04:32:39;11.50;;;9.07;;
14613;SDS011;7393;51.446;6.800;2023-05-31T04:35:06;19.07;;;9.07;;
14613;SDS011;7393;51.446;6.800;2023-05-31T04:37:35;15.53;;;9.17;;
14613;SDS011;7393;51.446;6.800;2023-05-31T04:40:02;9.73;;;8.23;;
14613;SDS011;7393;51.446;6.800;2023-05-31T04:42:34;11.57;;;9.03;;
14613;SDS011;7393;51.446;6.800;2023-05-31T04:45:01;14.30;;;9.70;;
14613;SDS011;7393;51.446;6.800;2023-05-31T04:47:29;13.70;;;9.47;;
14613;SDS011;7393;51.446;6.800;2023-05-31T04:49:57;12.83;;;9.80;;
14613;SDS011;7393;51.446;6.800;2023-05-31T04:52:25;11.47;;;9.17;;
14613;SDS011;7393;51.446;6.800;2023-05-31T04:54:55;14.13;;;9.57;;
14613;SDS011;7393;51.446;6.800;2023-05-31T04:57:23;10.30;;;8.60;;
14613;SDS011;7393;51.446;6.800;2023-05-31T04:59:51;15.53;;;9.17;;
14613;SDS011;7393;51.446;6.800;2023-05-31T05:02:18;11.90;;;10.20;;
14613;SDS011;7393;51.446;6.800;2023-05-31T05:04:46;11.77;;;9.33;;
14613;SDS011;7393;51.446;6.800;2023-05-31T05:07:14;24.23;;;9.83;;
14613;SDS011;7393;51.446;6.800;2023-05-31T05:09:41;16.07;;;9.50;;
14613;SDS011;7393;51.446;6.800;2023-05-31T05:12:10;13.43;;;9.90;;
14613;SDS011;7393;51.446;6.800;2023-05-31T05:14:36;13.67;;;9.47;;
14613;SDS011;7393;51.446;6.800;2023-05-31T05:17:04;12.87;;;8.87;;
14613;SDS011;7393;51.446;6.800;2023-05-31T05:19:31;11.27;;;8.93;;
14613;SDS011;7393;51.446;6.800;2023-05-31T05:21:58;12.00;;;9.40;;
14613;SDS011;7393;51.446;6.800;2023-05-31T05:24:24;12.07;;;8.37;;
14613;SDS011;7393;51.446;6.800;2023-05-31T05:26:52;12.97;;;9.73;;
14613;SDS011;7393;51.446;6.800;2023-05-31T05:29:20;13.00;;;9.20;;
14613;SDS011;7393;51.446;6.800;2023-05-31T05:31:46;12.97;;;8.37;;
14613;SDS011;7393;51.446;6.800;2023-05-31T05:34:13;14.63;;;8.63;;
14613;SDS011;7393;51.446;6.800;2023-05-31T05:36:40;10.80;;;8.37;;
14613;SDS011;7393;51.446;6.800;2023-05-31T05:39:07;14.03;;;8.90;;
14613;SDS011;7393;51.446;6.800;2023-05-31T05:41:34;11.47;;;8.13;;
14613;SDS011;7393;51.446;6.800;2023-05-31T05:44:01;17.13;;;8.80;;
14613;SDS011;7393;51.446;6.800;2023-05-31T05:46:29;11.20;;;8.87;;
14613;SDS011;7393;51.446;6.800;2023-05-31T05:48:56;14.00;;;8.67;;
14613;SDS011;7393;51.446;6.800;2023-05-31T05:51:23;11.33;;;8.30;;
14613;SDS011;7393;51.446;6.800;2023-05-31T05:53:51;12.17;;;8.63;;
14613;SDS011;7393;51.446;6.800;2023-05-31T05:56:18;13.07;;;8.80;;
14613;SDS011;7393;51.446;6.800;2023-05-31T05:58:44;16.53;;;8.27;;
14613;SDS011;7393;51.446;6.800;2023-05-31T06:01:12;18.17;;;8.90;;
14613;SDS011;7393;51.446;6.800;2023-05-31T06:03:46;11.27;;;8.73;;
14613;SDS011;7393;51.446;6.800;2023-05-31T06:06:13;13.93;;;7.90;;
14613;SDS011;7393;51.446;6.800;2023-05-31T06:08:41;13.83;;;8.60;;
14613;SDS011;7393;51.446;6.800;2023-05-31T06:11:08;15.80;;;8.30;;
14613;SDS011;7393;51.446;6.800;2023-05-31T06:13:35;14.53;;;8.07;;
14613;SDS011;7393;51.446;6.800;2023-05-31T06:16:02;15.37;;;8.60;;
14613;SDS011;7393;51.446;6.800;2023-05-31T06:18:30;11.20;;;8.10;;
14613;SDS011;7393;51.446;6.800;2023-05-31T06:20:58;8.67;;;7.63;;
14613;SDS011;7393;51.446;6.800;2023-05-31T06:23:25;15.07;;;8.50;;
14613;SDS011;7393;51.446;6.800;2023-05-31T06:25:52;11.73;;;7.60;;
14613;SDS011;7393;51.446;6.800;2023-05-31T06:28:18;13.10;;;8.07;;
14613;SDS011;7393;51.446;6.800;2023-05-31T06:30:45;12.00;;;7.57;;
14613;SDS011;7393;51.446;6.800;2023-05-31T06:33:12;12.40;;;7.87;;
14613;SDS011;7393;51.446;6.800;2023-05-31T06:35:39;14.53;;;8.80;;
14613;SDS011;7393;51.446;6.800;2023-05-31T06:38:09;14.40;;;8.10;;
14613;SDS011;7393;51.446;6.800;2023-05-31T06:40:40;12.93;;;8.07;;
14613;SDS011;7393;51.446;6.800;2023-05-31T06:43:08;13.90;;;8.03;;
14613;SDS011;7393;51.446;6.800;2023-05-31T06:45:35;16.80;;;8.57;;
14613;SDS011;7393;51.446;6.800;2023-05-31T06:48:03;10.33;;;7.33;;
14613;SDS011;7393;51.446;6.800;2023-05-31T06:50:30;9.77;;;7.93;;
14613;SDS011;7393;51.446;6.800;2023-05-31T06:52:57;10.97;;;7.47;;
14613;SDS011;7393;51.446;6.800;2023-05-31T06:55:25;12.40;;;8.30;;
14613;SDS011;7393;51.446;6.800;2023-05-31T06:57:52;12.40;;;8.23;;
14613;SDS011;7393;51.446;6.800;2023-05-31T07:00:19;14.23;;;8.37;;
14613;SDS011;7393;51.446;6.800;2023-05-31T07:02:45;11.50;;;8.13;;
14613;SDS011;7393;51.446;6.800;2023-05-31T07:05:12;14.90;;;9.40;;
14613;SDS011;7393;51.446;6.800;2023-05-31T07:07:39;13.17;;;8.20;;
14613;SDS011;7393;51.446;6.800;2023-05-31T07:10:06;10.77;;;7.30;;
14613;SDS011;7393;51.446;6.800;2023-05-31T07:12:35;13.60;;;8.77;;
14613;SDS011;7393;51.446;6.800;2023-05-31T07:15:02;18.03;;;8.47;;
14613;SDS011;7393;51.446;6.800;2023-05-31T07:17:29;12.73;;;7.17;;
14613;SDS011;7393;51.446;6.800;2023-05-31T07:19:56;16.17;;;7.90;;
14613;SDS011;7393;51.446;6.800;2023-05-31T07:22:22;11.50;;;7.23;;
14613;SDS011;7393;51.446;6.800;2023-05-31T07:24:49;11.63;;;7.10;;
14613;SDS011;7393;51.446;6.800;2023-05-31T07:27:16;13.50;;;7.40;;
14613;SDS011;7393;51.446;6.800;2023-05-31T07:29:44;12.60;;;7.10;;
14613;SDS011;7393;51.446;6.800;2023-05-31T07:32:11;8.50;;;6.63;;
14613;SDS011;7393;51.446;6.800;2023-05-31T07:34:38;13.43;;;7.07;;
14613;SDS011;7393;51.446;6.800;2023-05-31T07:37:05;10.07;;;6.63;;
14613;SDS011;7393;51.446;6.800;2023-05-31T07:39:32;10.70;;;6.20;;
14613;SDS011;7393;51.446;6.800;2023-05-31T07:41:59;8.47;;;5.80;;
14613;SDS011;7393;51.446;6.800;2023-05-31T07:44:26;11.17;;;5.73;;
14613;SDS011;7393;51.446;6.800;2023-05-31T07:46:54;8.53;;;5.63;;
14613;SDS011;7393;51.446;6.800;2023-05-31T07:49:21;9.73;;;5.20;;
14613;SDS011;7393;51.446;6.800;2023-05-31T07:51:48;9.97;;;6.27;;
14613;SDS011;7393;51.446;6.800;2023-05-31T07:54:14;8.87;;;6.20;;
14613;SDS011;7393;51.446;6.800;2023-05-31T07:56:41;9.93;;;6.43;;
14613;SDS011;7393;51.446;6.800;2023-05-31T07:59:08;9.27;;;6.70;;
14613;SDS011;7393;51.446;6.800;2023-05-31T08:01:34;8.33;;;6.30;;
14613;SDS011;7393;51.446;6.800;2023-05-31T08:04:06;10.07;;;6.27;;
14613;SDS011;7393;51.446;6.800;2023-05-31T08:06:34;9.80;;;6.30;;
14613;SDS011;7393;51.446;6.800;2023-05-31T08:09:01;8.13;;;6.37;;
14613;SDS011;7393;51.446;6.800;2023-05-31T08:11:28;12.90;;;5.93;;
14613;SDS011;7393;51.446;6.800;2023-05-31T08:13:55;12.67;;;5.77;;
14613;SDS011;7393;51.446;6.800;2023-05-31T08:16:21;11.03;;;5.83;;
14613;SDS011;7393;51.446;6.800;2023-05-31T08:18:48;9.30;;;5.33;;
14613;SDS011;7393;51.446;6.800;2023-05-31T08:21:16;8.23;;;5.03;;
14613;SDS011;7393;51.446;6.800;2023-05-31T08:23:43;10.03;;;5.63;;
14613;SDS011;7393;51.446;6.800;2023-05-31T08:26:10;7.70;;;5.40;;
14613;SDS011;7393;51.446;6.800;2023-05-31T08:28:37;6.97;;;5.20;;
14613;SDS011;7393;51.446;6.800;2023-05-31T08:31:04;8.10;;;5.10;;
14613;SDS011;7393;51.446;6.800;2023-05-31T08:33:31;9.80;;;5.00;;
14613;SDS011;7393;51.446;6.800;2023-05-31T08:35:57;9.40;;;4.57;;
14613;SDS011;7393;51.446;6.800;2023-05-31T08:38:26;6.13;;;4.33;;
14613;SDS011;7393;51.446;6.800;2023-05-31T08:40:54;7.10;;;4.30;;
14613;SDS011;7393;51.446;6.800;2023-05-31T08:43:23;8.13;;;4.33;;
14613;SDS011;7393;51.446;6.800;2023-05-31T08:45:52;6.03;;;4.00;;
14613;SDS011;7393;51.446;6.800;2023-05-31T08:48:21;8.67;;;4.17;;
14613;SDS011;7393;51.446;6.800;2023-05-31T08:50:52;8.23;;;4.27;;
14613;SDS011;7393;51.446;6.800;2023-05-31T08:53:19;6.57;;;4.30;;
14613;SDS011;7393;51.446;6.800;2023-05-31T08:55:51;6.43;;;3.77;;
14613;SDS011;7393;51.446;6.800;2023-05-31T08:58:19;6.53;;;4.40;;
14613;SDS011;7393;51.446;6.800;2023-05-31T09:00:46;7.80;;;4.10;;
14613;SDS011;7393;51.446;6.800;2023-05-31T09:03:14;7.57;;;3.60;;
14613;SDS011;7393;51.446;6.800;2023-05-31T09:05:41;7.70;;;3.60;;
14613;SDS011;7393;51.446;6.800;2023-05-31T09:08:08;9.17;;;3.60;;
14613;SDS011;7393;51.446;6.800;2023-05-31T09:10:35;5.20;;;3.27;;
14613;SDS011;7393;51.446;6.800;2023-05-31T09:13:03;6.43;;;3.13;;
14613;SDS011;7393;51.446;6.800;2023-05-31T09:15:31;5.07;;;2.97;;
14613;SDS011;7393;51.446;6.800;2023-05-31T09:18:11;6.93;;;3.50;;
14613;SDS011;7393;51.446;6.800;2023-05-31T09:20:40;4.53;;;3.43;;
14613;SDS011;7393;51.446;6.800;2023-05-31T09:23:07;7.00;;;3.70;;
14613;SDS011;7393;51.446;6.800;2023-05-31T09:25:44;6.73;;;3.10;;
14613;SDS011;7393;51.446;6.800;2023-05-31T09:28:13;5.63;;;3.30;;
14613;SDS011;7393;51.446;6.800;2023-05-31T09:30:41;5.60;;;3.27;;
14613;SDS011;7393;51.446;6.800;2023-05-31T09:33:08;7.97;;;3.40;;
14613;SDS011;7393;51.446;6.800;2023-05-31T09:35:35;7.13;;;2.97;;
14613;SDS011;7393;51.446;6.800;2023-05-31T09:38:05;5.70;;;2.93;;
14613;SDS011;7393;51.446;6.800;2023-05-31T09:40:33;7.80;;;3.03;;
14613;SDS011;7393;51.446;6.800;2023-05-31T09:43:00;7.57;;;2.87;;
14613;SDS011;7393;51.446;6.800;2023-05-31T09:45:28;4.23;;;2.30;;
14613;SDS011;7393;51.446;6.800;2023-05-31T09:47:56;5.77;;;3.00;;
14613;SDS011;7393;51.446;6.800;2023-05-31T09:50:24;5.50;;;2.60;;
14613;SDS011;7393;51.446;6.800;2023-05-31T09:52:55;5.97;;;2.63;;
14613;SDS011;7393;51.446;6.800;2023-05-31T09:55:23;4.73;;;2.77;;
14613;SDS011;7393;51.446;6.800;2023-05-31T09:57:51;8.23;;;2.50;;
14613;SDS011;7393;51.446;6.800;2023-05-31T10:00:20;8.60;;;3.10;;
14613;SDS011;7393;51.446;6.800;2023-05-31T10:02:49;7.30;;;2.90;;
14613;SDS011;7393;51.446;6.800;2023-05-31T10:05:17;5.70;;;2.67;;
14613;SDS011;7393;51.446;6.800;2023-05-31T10:07:45;9.50;;;2.73;;
14613;SDS011;7393;51.446;6.800;2023-05-31T10:10:13;4.57;;;2.30;;
14613;SDS011;7393;51.446;6.800;2023-05-31T10:12:45;5.13;;;2.30;;
14613;SDS011;7393;51.446;6.800;2023-05-31T10:15:16;5.93;;;2.20;;
14613;SDS011;7393;51.446;6.800;2023-05-31T10:17:50;9.17;;;2.20;;
14613;SDS011;7393;51.446;6.800;2023-05-31T10:20:21;6.07;;;2.40;;
14613;SDS011;7393;51.446;6.800;2023-05-31T10:22:54;5.57;;;2.20;;
14613;SDS011;7393;51.446;6.800;2023-05-31T10:25:24;5.83;;;2.90;;
14613;SDS011;7393;51.446;6.800;2023-05-31T10:27:55;8.13;;;2.27;;
14613;SDS011;7393;51.446;6.800;2023-05-31T10:30:28;4.03;;;2.10;;
14613;SDS011;7393;51.446;6.800;2023-05-31T10:33:01;8.13;;;2.40;;
14613;SDS011;7393;51.446;6.800;2023-05-31T10:35:31;6.77;;;2.20;;
14613;SDS011;7393;51.446;6.800;2023-05-31T10:37:59;10.27;;;2.03;;
14613;SDS011;7393;51.446;6.800;2023-05-31T10:40:30;9.73;;;2.40;;
14613;SDS011;7393;51.446;6.800;2023-05-31T10:43:03;3.93;;;2.17;;
14613;SDS011;7393;51.446;6.800;2023-05-31T10:45:38;4.37;;;2.20;;
14613;SDS011;7393;51.446;6.800;2023-05-31T10:48:13;5.30;;;1.90;;
14613;SDS011;7393;51.446;6.800;2023-05-31T10:50:52;6.40;;;2.40;;
14613;SDS011;7393;51.446;6.800;2023-05-31T10:53:19;6.07;;;2.03;;
14613;SDS011;7393;51.446;6.800;2023-05-31T10:55:47;6.53;;;2.10;;
14613;SDS011;7393;51.446;6.800;2023-05-31T10:58:24;6.10;;;2.50;;
14613;SDS011;7393;51.446;6.800;2023-05-31T11:00:53;4.40;;;2.13;;
14613;SDS011;7393;51.446;6.800;2023-05-31T11:03:22;4.13;;;1.83;;
14613;SDS011;7393;51.446;6.800;2023-05-31T11:05:56;5.78;;;2.00;;
14613;SDS011;7393;51.446;6.800;2023-05-31T11:08:24;6.10;;;2.47;;
14613;SDS011;7393;51.446;6.800;2023-05-31T11:10:51;5.07;;;2.03;;
14613;SDS011;7393;51.446;6.800;2023-05-31T11:13:18;3.90;;;2.10;;
14613;SDS011;7393;51.446;6.800;2023-05-31T11:15:46;4.47;;;2.25;;
14613;SDS011;7393;51.446;6.800;2023-05-31T11:18:16;9.03;;;1.83;;
14613;SDS011;7393;51.446;6.800;2023-05-31T11:20:52;2.85;;;2.17;;
14613;SDS011;7393;51.446;6.800;2023-05-31T11:23:22;5.65;;;2.55;;
14613;SDS011;7393;51.446;6.800;2023-05-31T11:26:10;7.40;;;2.53;;
14613;SDS011;7393;51.446;6.800;2023-05-31T11:28:56;3.97;;;2.17;;
14613;SDS011;7393;51.446;6.800;2023-05-31T11:34:28;4.93;;;2.00;;
14613;SDS011;7393;51.446;6.800;2023-05-31T11:36:59;4.00;;;2.10;;
14613;SDS011;7393;51.446;6.800;2023-05-31T11:39:27;5.32;;;2.30;;
14613;SDS011;7393;51.446;6.800;2023-05-31T11:41:55;5.35;;;2.17;;
14613;SDS011;7393;51.446;6.800;2023-05-31T11:44:26;4.53;;;2.10;;
14613;SDS011;7393;51.446;6.800;2023-05-31T11:46:56;3.03;;;1.92;;
14613;SDS011;7393;51.446;6.800;2023-05-31T11:49:32;5.57;;;2.30;;
14613;SDS011;7393;51.446;6.800;2023-05-31T11:51:59;5.75;;;2.42;;
14613;SDS011;7393;51.446;6.800;2023-05-31T11:54:28;7.95;;;2.05;;
14613;SDS011;7393;51.446;6.800;2023-05-31T11:56:59;5.70;;;2.00;;
14613;SDS011;7393;51.446;6.800;2023-05-31T11:59:27;6.00;;;2.15;;
14613;SDS011;7393;51.446;6.800;2023-05-31T12:01:57;5.05;;;2.15;;
14613;SDS011;7393;51.446;6.800;2023-05-31T12:04:29;6.07;;;2.10;;
14613;SDS011;7393;51.446;6.800;2023-05-31T12:06:58;5.75;;;1.92;;
14613;SDS011;7393;51.446;6.800;2023-05-31T12:09:25;7.22;;;2.00;;
14613;SDS011;7393;51.446;6.800;2023-05-31T12:11:52;2.90;;;1.90;;
14613;SDS011;7393;51.446;6.800;2023-05-31T12:14:21;5.13;;;2.05;;
14613;SDS011;7393;51.446;6.800;2023-05-31T12:16:48;3.70;;;2.10;;
14613;SDS011;7393;51.446;6.800;2023-05-31T12:19:15;5.70;;;1.92;;
14613;SDS011;7393;51.446;6.800;2023-05-31T12:21:42;3.47;;;1.83;;
14613;SDS011;7393;51.446;6.800;2023-05-31T12:24:12;4.15;;;1.92;;
14613;SDS011;7393;51.446;6.800;2023-05-31T12:26:39;3.55;;;1.92;;
14613;SDS011;7393;51.446;6.800;2023-05-31T12:29:08;8.27;;;2.38;;
14613;SDS011;7393;51.446;6.800;2023-05-31T12:31:35;4.03;;;2.13;;
14613;SDS011;7393;51.446;6.800;2023-05-31T12:34:06;4.28;;;2.45;;
14613;SDS011;7393;51.446;6.800;2023-05-31T12:36:37;6.15;;;1.90;;
14613;SDS011;7393;51.446;6.800;2023-05-31T12:39:09;3.83;;;2.10;;
14613;SDS011;7393;51.446;6.800;2023-05-31T12:41:42;3.85;;;2.00;;
14613;SDS011;7393;51.446;6.800;2023-05-31T12:44:09;6.60;;;1.95;;
14613;SDS011;7393;51.446;6.800;2023-05-31T12:46:39;3.30;;;1.65;;
14613;SDS011;7393;51.446;6.800;2023-05-31T12:49:10;3.58;;;1.98;;
14613;SDS011;7393;51.446;6.800;2023-05-31T12:51:44;3.55;;;1.80;;
14613;SDS011;7393;51.446;6.800;2023-05-31T12:54:12;5.05;;;2.03;;
14613;SDS011;7393;51.446;6.800;2023-05-31T12:56:41;4.13;;;1.92;;
14613;SDS011;7393;51.446;6.800;2023-05-31T12:59:08;3.22;;;1.80;;
14613;SDS011;7393;51.446;6.800;2023-05-31T13:01:36;5.80;;;2.10;;
14613;SDS011;7393;51.446;6.800;2023-05-31T13:04:05;4.72;;;1.90;;
14613;SDS011;7393;51.446;6.800;2023-05-31T13:06:32;2.38;;;1.60;;
14613;SDS011;7393;51.446;6.800;2023-05-31T13:09:00;3.65;;;1.80;;
14613;SDS011;7393;51.446;6.800;2023-05-31T13:11:31;4.00;;;1.75;;
14613;SDS011;7393;51.446;6.800;2023-05-31T13:13:59;4.25;;;1.77;;
14613;SDS011;7393;51.446;6.800;2023-05-31T13:16:26;3.50;;;2.55;;
14613;SDS011;7393;51.446;6.800;2023-05-31T13:18:54;6.00;;;2.13;;
14613;SDS011;7393;51.446;6.800;2023-05-31T13:21:21;2.80;;;1.85;;
14613;SDS011;7393;51.446;6.800;2023-05-31T13:23:48;3.85;;;1.70;;
14613;SDS011;7393;51.446;6.800;2023-05-31T13:26:15;4.90;;;1.67;;
14613;SDS011;7393;51.446;6.800;2023-05-31T13:28:44;4.20;;;1.90;;
14613;SDS011;7393;51.446;6.800;2023-05-31T13:31:10;3.80;;;1.67;;
14613;SDS011;7393;51.446;6.800;2023-05-31T13:33:37;4.38;;;2.00;;
14613;SDS011;7393;51.446;6.800;2023-05-31T13:36:04;3.95;;;1.70;;
14613;SDS011;7393;51.446;6.800;2023-05-31T13:38:32;4.22;;;2.00;;
14613;SDS011;7393;51.446;6.800;2023-05-31T13:40:59;4.05;;;1.77;;
14613;SDS011;7393;51.446;6.800;2023-05-31T13:43:26;4.97;;;2.47;;
14613;SDS011;7393;51.446;6.800;2023-05-31T13:45:57;5.90;;;2.50;;
14613;SDS011;7393;51.446;6.800;2023-05-31T13:48:24;5.03;;;2.13;;
14613;SDS011;7393;51.446;6.800;2023-05-31T13:50:51;6.10;;;1.83;;
14613;SDS011;7393;51.446;6.800;2023-05-31T13:53:18;5.13;;;2.00;;
14613;SDS011;7393;51.446;6.800;2023-05-31T13:55:45;4.57;;;1.75;;
14613;SDS011;7393;51.446;6.800;2023-05-31T13:58:12;3.38;;;1.50;;
14613;SDS011;7393;51.446;6.800;2023-05-31T14:00:39;5.85;;;2.20;;
14613;SDS011;7393;51.446;6.800;2023-05-31T14:03:08;4.18;;;2.25;;
14613;SDS011;7393;51.446;6.800;2023-05-31T14:05:34;3.25;;;1.95;;
14613;SDS011;7393;51.446;6.800;2023-05-31T14:08:01;4.13;;;2.20;;
14613;SDS011;7393;51.446;6.800;2023-05-31T14:10:28;3.53;;;1.65;;
14613;SDS011;7393;51.446;6.800;2023-05-31T14:12:55;4.85;;;2.70;;
14613;SDS011;7393;51.446;6.800;2023-05-31T14:15:22;4.65;;;1.90;;
14613;SDS011;7393;51.446;6.800;2023-05-31T14:17:49;5.57;;;1.98;;
14613;SDS011;7393;51.446;6.800;2023-05-31T14:20:17;14.63;;;10.27;;
14613;SDS011;7393;51.446;6.800;2023-05-31T14:22:44;7.05;;;5.18;;
14613;SDS011;7393;51.446;6.800;2023-05-31T14:25:11;7.25;;;5.90;;
14613;SDS011;7393;51.446;6.800;2023-05-31T14:27:37;4.55;;;2.97;;
14613;SDS011;7393;51.446;6.800;2023-05-31T14:30:05;4.78;;;2.72;;
14613;SDS011;7393;51.446;6.800;2023-05-31T14:32:33;6.32;;;5.72;;
14613;SDS011;7393;51.446;6.800;2023-05-31T14:35:00;3.80;;;2.60;;
14613;SDS011;7393;51.446;6.800;2023-05-31T14:37:29;5.80;;;3.40;;
14613;SDS011;7393;51.446;6.800;2023-05-31T14:39:55;27.83;;;24.92;;
14613;SDS011;7393;51.446;6.800;2023-05-31T14:42:22;6.50;;;3.80;;
14613;SDS011;7393;51.446;6.800;2023-05-31T14:44:49;5.63;;;2.92;;
14613;SDS011;7393;51.446;6.800;2023-05-31T14:47:16;28.55;;;21.73;;
14613;SDS011;7393;51.446;6.800;2023-05-31T14:49:43;78.97;;;67.25;;
14613;SDS011;7393;51.446;6.800;2023-05-31T14:52:10;85.25;;;61.33;;
14613;SDS011;7393;51.446;6.800;2023-05-31T14:54:39;10.00;;;6.75;;
14613;SDS011;7393;51.446;6.800;2023-05-31T14:57:06;23.23;;;18.35;;
14613;SDS011;7393;51.446;6.800;2023-05-31T14:59:33;6.38;;;2.78;;
14613;SDS011;7393;51.446;6.800;2023-05-31T15:02:00;7.80;;;4.65;;
14613;SDS011;7393;51.446;6.800;2023-05-31T15:04:27;12.07;;;7.88;;
14613;SDS011;7393;51.446;6.800;2023-05-31T15:06:54;4.32;;;2.08;;